Time;durP1;ratioP1;P1;durP2;ratioP2;P2;SDS_P1;SDS_P2;PMS_P1;PMS_P2;Temp;Humidity;BMP_temperature;BMP_pressure;BME280_temperature;BME280_humidity;BME280_pressure;Samples;Min_cycle;Max_cycle;Signal;HPM_P1;HPM_P2
2023/04/29 00:01:20;;;;;;;25.40;20.40;;;;;;;10.40;100.00;95847.63;7398601;19;20349;-75
2023/04/29 00:03:48;;;;;;;19.20;17.13;;;;;;;10.19;100.00;95811.59;7398594;19;20396;-76
2023/04/29 00:06:15;;;;;;;18.57;16.63;;;;;;;10.30;100.00;95817.97;7396920;19;20361;-75
2023/04/29 00:08:43;;;;;;;19.30;17.30;;;;;;;10.70;100.00;95845.44;7395673;19;20572;-75
2023/04/29 00:11:10;;;;;;;16.07;14.40;;;;;;;10.45;100.00;95810.41;7395438;19;20879;-75
2023/04/29 00:13:40;;;;;;;15.37;13.50;;;;;;;10.64;100.00;95843.03;7397310;19;20391;-75
2023/04/29 00:16:10;;;;;;;18.23;16.20;;;;;;;10.56;100.00;95838.66;7395090;19;20411;-75
2023/04/29 00:18:38;;;;;;;15.80;14.20;;;;;;;10.34;100.00;95802.97;7395010;19;20432;-76
2023/04/29 00:21:04;;;;;;;16.63;14.90;;;;;;;10.37;100.00;95814.72;7396670;19;20892;-75
2023/04/29 00:23:32;;;;;;;20.23;15.17;;;;;;;10.44;100.00;95822.09;7398294;19;20877;-76
2023/04/29 00:25:59;;;;;;;15.27;13.77;;;;;;;10.47;100.00;95800.28;7395436;19;20372;-75
2023/04/29 00:28:27;;;;;;;16.13;14.60;;;;;;;10.58;100.00;95809.25;7394877;19;20471;-75
2023/04/29 00:30:54;;;;;;;13.10;11.73;;;;;;;10.68;100.00;95821.94;7395203;19;20376;-75
2023/04/29 00:33:22;;;;;;;14.10;12.70;;;;;;;10.51;100.00;95804.53;7396850;19;20792;-74
2023/04/29 00:35:49;;;;;;;14.47;13.00;;;;;;;10.65;100.00;95826.06;7395436;19;20388;-75
2023/04/29 00:38:16;;;;;;;14.77;12.03;;;;;;;10.64;100.00;95826.38;7397050;19;20416;-75
2023/04/29 00:40:44;;;;;;;13.57;12.27;;;;;;;10.40;100.00;95803.47;7395511;19;20383;-75
2023/04/29 00:43:11;;;;;;;14.10;12.70;;;;;;;10.51;100.00;95830.97;7395390;19;20397;-76
2023/04/29 00:45:38;;;;;;;12.10;10.80;;;;;;;10.47;100.00;95816.91;7403615;19;20405;-77
2023/04/29 00:48:05;;;;;;;12.70;11.40;;;;;;;10.42;100.00;95813.75;7431236;19;20416;-77
2023/04/29 00:50:33;;;;;;;13.20;11.90;;;;;;;10.13;100.00;95780.44;7430963;19;20357;-76
2023/04/29 00:53:00;;;;;;;12.70;11.30;;;;;;;10.36;100.00;95808.69;7423508;19;20375;-76
2023/04/29 00:55:28;;;;;;;11.67;10.47;;;;;;;10.34;100.00;95810.13;7396248;19;20376;-75
2023/04/29 00:57:56;;;;;;;12.47;11.27;;;;;;;10.37;100.00;95814.72;7397662;19;20409;-76
2023/04/29 01:00:25;;;;;;;10.80;9.77;;;;;;;10.23;100.00;95786.06;7395123;19;20410;-75
2023/04/29 01:02:53;;;;;;;10.00;9.00;;;;;;;10.26;100.00;95787.25;7396406;19;20400;-75
2023/04/29 01:05:20;;;;;;;9.77;8.83;;;;;;;10.36;100.00;95806.03;7397431;19;20348;-74
2023/04/29 01:08:25;;;;;;;9.53;8.63;;;;;;;10.55;100.00;95823.91;7395719;19;20457;-75
2023/04/29 01:11:09;;;;;;;8.70;8.00;;;;;;;10.28;100.00;95800.88;7396373;19;20447;-76
2023/04/29 01:13:53;;;;;;;11.30;10.20;;;;;;;10.21;100.00;95808.59;7394948;19;20377;-75
2023/04/29 01:16:42;;;;;;;11.60;9.73;;;;;;;10.22;100.00;95795.09;7394162;19;20380;-75
2023/04/29 01:19:51;;;;;;;10.20;9.13;;;;;;;10.18;100.00;95801.34;7391234;19;20451;-74
2023/04/29 01:22:20;;;;;;;8.03;7.03;;;;;;;10.25;100.00;95804.97;7395559;19;20372;-75
2023/04/29 01:24:48;;;;;;;8.47;7.67;;;;;;;10.19;100.00;95808.19;7394110;19;20763;-75
2023/04/29 01:27:34;;;;;;;11.13;10.00;;;;;;;10.07;100.00;95791.25;7397083;19;20385;-75
2023/04/29 01:30:51;;;;;;;11.33;8.87;;;;;;;10.12;100.00;95798.16;7392240;19;20448;-75
2023/04/29 01:33:39;;;;;;;6.80;6.10;;;;;;;10.22;100.00;95799.59;7394572;19;20409;-74
2023/04/29 01:36:15;;;;;;;7.80;7.10;;;;;;;10.40;100.00;95811.41;7394264;19;20388;-75
2023/04/29 01:38:58;;;;;;;8.40;5.43;;;;;;;10.25;100.00;95768.00;7391431;19;20547;-75
2023/04/29 01:41:44;;;;;;;7.00;6.20;;;;;;;10.29;100.00;95790.00;7397197;19;20365;-75
2023/04/29 01:44:23;;;;;;;9.13;8.37;;;;;;;10.07;100.00;95778.06;7401505;19;20385;-75
2023/04/29 01:46:52;;;;;;;10.20;9.20;;;;;;;10.11;100.00;95801.16;7401655;19;20693;-75
2023/04/29 01:49:25;;;;;;;12.63;9.37;;;;;;;9.88;100.00;95759.44;7401738;19;20439;-75
2023/04/29 01:51:52;;;;;;;10.23;9.27;;;;;;;10.10;100.00;95803.03;7400170;19;20392;-75
2023/04/29 01:54:20;;;;;;;8.90;8.03;;;;;;;10.13;100.00;95812.16;7400463;19;20455;-74
2023/04/29 01:56:48;;;;;;;9.67;8.70;;;;;;;10.13;100.00;95807.63;7402557;19;20961;-75
2023/04/29 01:59:29;;;;;;;7.23;6.57;;;;;;;10.31;100.00;95798.34;7401044;19;20726;-74
2023/04/29 02:02:19;;;;;;;6.80;6.17;;;;;;;10.43;100.00;95808.13;7401962;19;20395;-74
2023/04/29 02:04:55;;;;;;;6.77;6.17;;;;;;;10.48;100.00;95807.84;7400209;19;20403;-75
2023/04/29 02:07:23;;;;;;;8.03;7.23;;;;;;;10.59;100.00;95813.44;7401002;19;20416;-75
2023/04/29 02:09:50;;;;;;;6.53;5.93;;;;;;;10.38;100.00;95784.56;7401398;19;20348;-76
2023/04/29 02:12:17;;;;;;;5.87;5.27;;;;;;;10.52;100.00;95803.44;7401209;19;20940;-75
2023/04/29 02:14:46;;;;;;;6.80;6.30;;;;;;;10.52;100.00;95807.94;7400205;19;20369;-75
2023/04/29 02:17:13;;;;;;;6.20;5.70;;;;;;;10.19;100.00;95768.56;7397772;19;20357;-74
2023/04/29 02:19:42;;;;;;;7.70;7.00;;;;;;;10.18;100.00;95804.00;7397441;19;20880;-75
2023/04/29 02:22:11;;;;;;;7.50;6.90;;;;;;;10.24;100.00;95829.09;7398481;19;20360;-74
2023/04/29 02:24:40;;;;;;;7.40;6.70;;;;;;;10.17;100.00;95810.38;7399785;19;20372;-75
2023/04/29 02:27:07;;;;;;;6.73;6.07;;;;;;;10.15;100.00;95809.94;7401075;19;20392;-75
2023/04/29 02:29:34;;;;;;;6.80;6.10;;;;;;;10.03;100.00;95806.25;7400428;19;20413;-75
2023/04/29 02:32:01;;;;;;;7.13;6.43;;;;;;;10.07;100.00;95806.34;7401002;19;20376;-75
2023/04/29 02:34:28;;;;;;;6.20;5.60;;;;;;;10.11;100.00;95817.75;7399524;19;20424;-74
2023/04/29 02:36:55;;;;;;;7.50;6.70;;;;;;;10.05;100.00;95804.03;7401131;19;20448;-75
2023/04/29 02:39:22;;;;;;;7.73;7.03;;;;;;;10.22;100.00;95826.78;7398372;19;20404;-74
2023/04/29 02:41:54;;;;;;;6.93;6.23;;;;;;;10.24;100.00;95811.38;7398526;19;20376;-75
2023/04/29 02:44:21;;;;;;;6.30;5.70;;;;;;;10.36;100.00;95800.75;7399846;19;20732;-75
2023/04/29 02:46:48;;;;;;;8.60;5.80;;;;;;;10.49;100.00;95812.03;7397943;19;20401;-74
2023/04/29 02:49:15;;;;;;;5.37;4.90;;;;;;;10.74;100.00;95841.00;7398532;19;20405;-74
2023/04/29 02:51:42;;;;;;;5.40;4.90;;;;;;;10.66;100.00;95822.28;7395163;19;20380;-74
2023/04/29 02:54:11;;;;;;;5.80;5.20;;;;;;;10.40;100.00;95800.84;7399236;19;20393;-74
2023/04/29 02:56:38;;;;;;;6.47;5.27;;;;;;;10.34;100.00;95820.69;7397473;19;20389;-76
2023/04/29 02:59:05;;;;;;;8.10;6.63;;;;;;;10.46;100.00;95825.16;7397039;19;20836;-76
2023/04/29 03:01:32;;;;;;;7.40;6.67;;;;;;;10.21;100.00;95784.84;7397756;19;20360;-75
2023/04/29 03:03:59;;;;;;;7.27;6.67;;;;;;;10.40;100.00;95813.28;7399289;19;20389;-75
2023/04/29 03:06:26;;;;;;;5.57;5.10;;;;;;;10.55;100.00;95820.47;7397782;19;20397;-75
2023/04/29 03:08:53;;;;;;;6.70;5.63;;;;;;;10.49;100.00;95800.69;7396986;19;20441;-75
2023/04/29 03:11:23;;;;;;;4.63;4.33;;;;;;;10.57;100.00;95818.28;7395964;19;20397;-75
2023/04/29 03:13:50;;;;;;;6.20;5.53;;;;;;;10.69;100.00;95834.09;7396184;19;20392;-76
2023/04/29 03:16:17;;;;;;;5.90;5.40;;;;;;;10.62;100.00;95832.03;7395674;19;20468;-76
2023/04/29 03:18:44;;;;;;;6.23;5.63;;;;;;;10.35;100.00;95814.31;7394008;19;20408;-75
2023/04/29 03:21:11;;;;;;;6.10;5.53;;;;;;;10.21;100.00;95814.69;7397890;19;20380;-76
2023/04/29 03:23:39;;;;;;;6.23;5.70;;;;;;;9.93;100.00;95811.22;7395474;19;20915;-75
2023/04/29 03:26:08;;;;;;;7.93;6.13;;;;;;;9.95;100.00;95815.06;7397200;19;20384;-76
2023/04/29 03:28:36;;;;;;;6.27;5.67;;;;;;;10.03;100.00;95779.84;7396983;19;20447;-75
2023/04/29 03:31:03;;;;;;;5.97;5.37;;;;;;;10.18;100.00;95807.41;7397291;19;20732;-76
2023/04/29 03:33:30;;;;;;;5.30;4.80;;;;;;;10.29;100.00;95807.72;7399122;19;20372;-75
2023/04/29 03:35:57;;;;;;;5.40;5.00;;;;;;;10.12;100.00;95784.97;7397213;19;20361;-75
2023/04/29 03:38:33;;;;;;;6.30;5.53;;;;;;;10.27;100.00;95818.63;7397129;19;20465;-75
2023/04/29 03:41:01;;;;;;;5.63;5.23;;;;;;;10.15;100.00;95797.53;7397400;19;20454;-74
2023/04/29 03:43:30;;;;;;;7.20;5.90;;;;;;;10.14;100.00;95808.41;7399050;19;20412;-75
2023/04/29 03:45:57;;;;;;;5.57;5.07;;;;;;;9.88;100.00;95814.06;7397467;19;20693;-75
2023/04/29 03:48:24;;;;;;;5.80;5.30;;;;;;;9.98;100.00;95817.03;7415053;19;20445;-75
2023/04/29 03:50:52;;;;;;;6.43;5.83;;;;;;;10.05;100.00;95825.16;7427264;19;20372;-74
2023/04/29 03:53:20;;;;;;;5.90;5.40;;;;;;;9.86;100.00;95798.56;7428226;19;20376;-74
2023/04/29 03:55:47;;;;;;;5.23;4.83;;;;;;;9.94;100.00;95824.09;7430133;19;20385;-75
2023/04/29 03:58:15;;;;;;;5.47;4.90;;;;;;;9.44;100.00;95758.53;7418386;19;20441;-75
2023/04/29 04:00:42;;;;;;;5.73;5.23;;;;;;;9.61;100.00;95795.22;7397895;19;20383;-74
2023/04/29 04:03:15;;;;;;;5.63;5.13;;;;;;;9.60;100.00;95795.53;7396194;19;20741;-74
2023/04/29 04:05:43;;;;;;;6.83;5.40;;;;;;;9.74;100.00;95822.34;7396682;19;20384;-75
2023/04/29 04:08:13;;;;;;;6.70;6.10;;;;;;;9.71;100.00;95812.47;7395990;19;20437;-75
2023/04/29 04:10:43;;;;;;;6.30;5.63;;;;;;;9.82;100.00;95832.03;7399641;19;20405;-75
2023/04/29 04:13:36;;;;;;;6.67;6.17;;;;;;;9.83;100.00;95836.22;7397064;19;20400;-75
2023/04/29 04:16:04;;;;;;;7.40;6.70;;;;;;;9.81;100.00;95838.41;7393829;19;20533;-75
2023/04/29 04:18:31;;;;;;;5.93;5.27;;;;;;;9.54;100.00;95802.16;7395623;19;20960;-75
2023/04/29 04:21:04;;;;;;;5.90;5.40;;;;;;;9.39;100.00;95825.47;7395395;19;20426;-74
2023/04/29 04:23:31;;;;;;;7.43;6.83;;;;;;;9.41;100.00;95838.34;7397390;19;20364;-74
2023/04/29 04:26:02;;;;;;;6.93;6.30;;;;;;;9.41;100.00;95814.59;7396278;19;20396;-74
2023/04/29 04:28:58;;;;;;;7.87;7.27;;;;;;;9.38;100.00;95844.28;7393346;19;20428;-74
2023/04/29 04:31:51;;;;;;;6.30;5.77;;;;;;;9.10;100.00;95810.66;7397000;19;20364;-75
2023/04/29 04:34:20;;;;;;;8.50;7.03;;;;;;;9.34;100.00;95851.31;7395472;19;20388;-75
2023/04/29 04:36:49;;;;;;;8.00;5.87;;;;;;;9.24;100.00;95854.38;7396452;19;20454;-75
2023/04/29 04:39:16;;;;;;;6.53;6.03;;;;;;;9.37;100.00;95855.94;7393250;19;20461;-74
2023/04/29 04:41:43;;;;;;;7.10;6.40;;;;;;;9.40;100.00;95863.97;7396391;19;20843;-75
2023/04/29 04:44:11;;;;;;;10.23;6.53;;;;;;;9.58;100.00;95863.72;7395388;19;20383;-75
2023/04/29 04:47:05;;;;;;;7.13;6.53;;;;;;;9.73;100.00;95863.06;7395375;19;20389;-75
2023/04/29 04:49:54;;;;;;;8.57;7.00;;;;;;;9.89;100.00;95871.84;7396569;19;20384;-75
2023/04/29 04:52:21;;;;;;;7.30;5.73;;;;;;;9.83;100.00;95857.34;7394840;19;20396;-75
2023/04/29 04:55:06;;;;;;;7.00;6.43;;;;;;;9.97;100.00;95876.22;7395594;19;20360;-75
2023/04/29 04:57:35;;;;;;;6.63;6.03;;;;;;;10.02;100.00;95875.25;7394832;19;20416;-75
2023/04/29 05:00:03;;;;;;;7.30;6.60;;;;;;;9.97;100.00;95863.03;7393438;19;20397;-76
2023/04/29 05:02:31;;;;;;;9.20;6.07;;;;;;;9.96;100.00;95868.66;7396090;19;20387;-75
2023/04/29 05:04:58;;;;;;;8.07;7.10;;;;;;;10.13;100.00;95891.38;7391861;19;20981;-75
2023/04/29 05:07:28;;;;;;;8.37;6.87;;;;;;;10.06;100.00;95876.13;7394398;19;20421;-74
2023/04/29 05:10:02;;;;;;;7.07;6.43;;;;;;;10.10;100.00;95884.13;7394059;19;20393;-76
2023/04/29 05:12:31;;;;;;;8.57;7.83;;;;;;;9.89;100.00;95858.66;7396495;19;20396;-75
2023/04/29 05:15:00;;;;;;;7.60;6.80;;;;;;;9.86;100.00;95853.25;7394347;19;20413;-75
2023/04/29 05:17:28;;;;;;;7.00;6.40;;;;;;;10.03;100.00;95876.78;7396601;19;20503;-74
2023/04/29 05:19:55;;;;;;;8.73;6.80;;;;;;;10.03;100.00;95864.34;7394776;19;20373;-75
2023/04/29 05:22:22;;;;;;;8.27;7.50;;;;;;;10.00;100.00;95856.31;7395773;19;20368;-75
2023/04/29 05:24:51;;;;;;;7.47;6.87;;;;;;;10.40;100.00;95903.91;7394002;19;20397;-75
2023/04/29 05:27:19;;;;;;;7.23;6.53;;;;;;;10.36;100.00;95890.59;7392275;19;20423;-75
2023/04/29 05:29:47;;;;;;;6.90;6.37;;;;;;;10.30;100.00;95881.38;7394185;19;20581;-75
2023/04/29 05:32:14;;;;;;;7.47;6.73;;;;;;;10.36;100.00;95887.94;7394196;19;20727;-75
2023/04/29 05:34:43;;;;;;;10.33;8.40;;;;;;;10.46;100.00;95902.56;7395455;19;20382;-76
2023/04/29 05:37:10;;;;;;;8.10;7.30;;;;;;;10.59;100.00;95919.94;7392593;19;20416;-74
2023/04/29 05:39:51;;;;;;;7.53;6.80;;;;;;;10.43;100.00;95899.84;7393782;19;20388;-74
2023/04/29 05:42:18;;;;;;;7.87;7.10;;;;;;;10.54;100.00;95925.44;7395486;19;20376;-74
2023/04/29 05:44:49;;;;;;;7.20;6.50;;;;;;;10.51;100.00;95912.13;7395111;19;20601;-74
2023/04/29 05:47:16;;;;;;;7.53;6.83;;;;;;;10.40;100.00;95897.84;7392599;19;20993;-74
2023/04/29 05:49:43;;;;;;;8.03;7.33;;;;;;;10.27;100.00;95870.69;7394822;19;20425;-74
2023/04/29 05:52:10;;;;;;;8.07;7.27;;;;;;;10.33;100.00;95885.22;7393199;19;20396;-73
2023/04/29 05:54:43;;;;;;;8.20;7.40;;;;;;;10.51;100.00;95920.84;7394538;19;20384;-74
2023/04/29 05:57:10;;;;;;;8.60;7.80;;;;;;;10.52;100.00;95911.78;7392823;19;20376;-75
2023/04/29 05:59:39;;;;;;;6.87;6.20;;;;;;;10.60;100.00;95923.34;7393538;19;20523;-75
2023/04/29 06:02:07;;;;;;;8.20;7.00;;;;;;;10.39;100.00;95891.03;7393323;19;20436;-75
2023/04/29 06:04:35;;;;;;;9.60;8.60;;;;;;;10.49;100.00;95901.91;7391493;19;20376;-75
2023/04/29 06:07:21;;;;;;;7.33;6.63;;;;;;;10.61;100.00;95919.59;7394264;19;20728;-75
2023/04/29 06:10:00;;;;;;;9.03;7.40;;;;;;;10.62;100.00;95931.72;7392623;19;20403;-75
2023/04/29 06:12:28;;;;;;;7.37;6.67;;;;;;;10.47;100.00;95906.00;7393721;19;20425;-75
2023/04/29 06:14:56;;;;;;;9.70;7.23;;;;;;;10.63;100.00;95928.72;7392850;19;20721;-74
2023/04/29 06:17:32;;;;;;;7.33;6.63;;;;;;;10.90;100.00;95948.34;7393643;19;20433;-74
2023/04/29 06:20:12;;;;;;;7.00;6.40;;;;;;;10.88;100.00;95933.94;7391671;19;20413;-74
2023/04/29 06:22:40;;;;;;;6.90;6.30;;;;;;;10.77;100.00;95935.50;7392145;19;20373;-75
2023/04/29 06:25:16;;;;;;;8.00;6.70;;;;;;;10.71;100.00;95928.94;7393148;19;20465;-74
2023/04/29 06:27:51;;;;;;;7.83;7.10;;;;;;;10.98;100.00;95957.25;7391681;19;20407;-74
2023/04/29 06:30:28;;;;;;;9.30;8.33;;;;;;;10.93;100.00;95947.66;7401265;19;20380;-74
2023/04/29 06:32:58;;;;;;;9.13;8.07;;;;;;;10.97;100.00;95952.31;7426066;19;20408;-81
2023/04/29 06:35:31;;;;;;;8.00;7.10;;;;;;;10.82;100.00;95909.59;7433270;19;20429;-83
2023/04/29 06:38:33;;;;;;;8.90;8.10;;;;;;;10.98;100.00;95953.84;7433964;19;20444;-79
2023/04/29 06:41:11;;;;;;;7.10;6.47;;;;;;;11.20;100.00;95988.44;7399244;19;20405;-74
2023/04/29 06:43:56;;;;;;;8.27;7.27;;;;;;;11.19;100.00;95967.63;7399115;19;20380;-76
2023/04/29 06:47:00;;;;;;;11.20;7.60;;;;;;;11.23;100.00;95961.34;7398381;19;20517;-74
2023/04/29 06:50:00;;;;;;;8.10;7.30;;;;;;;11.40;100.00;95981.41;7397617;19;20687;-75
2023/04/29 06:52:32;;;;;;;9.37;8.30;;;;;;;11.24;100.00;95970.81;7398754;19;20914;-75
2023/04/29 06:55:06;;;;;;;8.50;7.60;;;;;;;11.38;100.00;95969.63;7397717;19;20932;-75
2023/04/29 06:57:41;;;;;;;6.77;6.10;;;;;;;11.38;100.00;95973.03;7398970;19;20404;-75
2023/04/29 07:00:14;;;;;;;8.90;8.10;;;;;;;11.47;100.00;95980.81;7396907;19;20901;-75
2023/04/29 07:02:42;;;;;;;8.87;7.97;;;;;;;11.50;100.00;95978.28;7400026;19;20365;-75
2023/04/29 07:05:20;;;;;;;8.00;7.30;;;;;;;11.58;100.00;95995.09;7397957;19;20423;-71
2023/04/29 07:08:00;;;;;;;10.57;9.53;;;;;;;11.48;100.00;95972.53;7394283;19;20796;-71
2023/04/29 07:10:33;;;;;;;7.90;7.10;;;;;;;11.74;100.00;96000.41;7401221;19;20362;-71
2023/04/29 07:13:28;;;;;;;8.30;7.50;;;;;;;11.74;100.00;95976.56;7398260;19;21099;-71
2023/04/29 07:15:59;;;;;;;8.10;7.40;;;;;;;11.73;100.00;95988.25;7398280;19;20400;-71
2023/04/29 07:18:29;;;;;;;8.33;7.60;;;;;;;11.86;100.00;96002.22;7400524;19;20604;-70
2023/04/29 07:21:07;;;;;;;8.50;7.20;;;;;;;11.94;100.00;95993.34;7397521;19;20863;-71
2023/04/29 07:23:44;;;;;;;8.33;6.37;;;;;;;12.16;100.00;96015.81;7399214;19;20952;-70
2023/04/29 07:26:22;;;;;;;9.80;8.10;;;;;;;12.04;100.00;96012.16;7397736;19;20377;-70
2023/04/29 07:28:55;;;;;;;7.23;6.53;;;;;;;12.08;100.00;96020.19;7397358;19;20436;-70
2023/04/29 07:31:26;;;;;;;8.40;7.00;;;;;;;12.08;100.00;96022.81;7397899;19;20409;-71
2023/04/29 07:34:06;;;;;;;7.83;6.37;;;;;;;12.06;100.00;96020.53;7396914;19;20385;-71
2023/04/29 07:36:40;;;;;;;6.70;6.10;;;;;;;12.11;100.00;96022.91;7398269;19;20703;-71
2023/04/29 07:39:08;;;;;;;8.10;7.30;;;;;;;12.07;100.00;96016.00;7395177;19;20450;-70
2023/04/29 07:41:45;;;;;;;7.80;7.00;;;;;;;11.97;100.00;96004.03;7396343;19;20364;-72
2023/04/29 07:44:18;;;;;;;8.57;7.67;;;;;;;11.99;100.00;96008.97;7394480;19;20371;-71
2023/04/29 07:47:00;;;;;;;9.87;8.87;;;;;;;11.86;100.00;96007.53;7396359;19;20388;-71
2023/04/29 07:49:51;;;;;;;8.90;8.00;;;;;;;12.10;100.00;96044.44;7397571;19;20404;-71
2023/04/29 07:52:21;;;;;;;7.37;6.67;;;;;;;12.14;100.00;96040.00;7396754;19;20376;-70
2023/04/29 07:54:55;;;;;;;8.07;7.30;;;;;;;12.13;100.00;96033.16;7399969;19;20401;-70
2023/04/29 07:57:34;;;;;;;8.60;7.80;;;;;;;12.25;100.00;96058.81;7396650;19;20439;-70
2023/04/29 08:00:15;;;;;;;8.30;6.93;;;;;;;12.12;100.00;96052.81;7397084;19;20396;-75
2023/04/29 08:02:52;;;;;;;8.07;7.37;;;;;;;12.09;100.00;96054.28;7399939;19;20371;-75
2023/04/29 08:05:22;;;;;;;7.70;6.90;;;;;;;11.96;100.00;96058.13;7396897;19;20383;-76
2023/04/29 08:07:50;;;;;;;7.03;6.30;;;;;;;12.18;100.00;96064.72;7395284;19;20436;-77
2023/04/29 08:10:18;;;;;;;7.60;6.90;;;;;;;12.02;100.00;96058.63;7397349;19;20381;-77
2023/04/29 08:12:45;;;;;;;8.67;7.60;;;;;;;12.19;100.00;96063.63;7394865;19;20372;-77
2023/04/29 08:15:12;;;;;;;8.57;7.33;;;;;;;12.19;100.00;96058.31;7397138;19;20723;-77
2023/04/29 08:17:39;;;;;;;7.43;6.73;;;;;;;12.07;100.00;96061.81;7395364;19;20420;-77
2023/04/29 08:20:08;;;;;;;7.33;6.63;;;;;;;12.00;100.00;96034.34;7396446;19;20425;-77
2023/04/29 08:22:35;;;;;;;6.40;5.83;;;;;;;12.38;100.00;96068.19;7396315;19;20405;-77
2023/04/29 08:25:04;;;;;;;11.30;6.87;;;;;;;12.48;100.00;96074.88;7398726;19;20377;-78
2023/04/29 08:27:31;;;;;;;6.63;6.13;;;;;;;12.32;100.00;96056.34;7396963;19;20543;-78
2023/04/29 08:29:58;;;;;;;7.53;6.80;;;;;;;12.25;100.00;96041.03;7398307;19;20404;-78
2023/04/29 08:32:25;;;;;;;7.80;7.00;;;;;;;12.25;100.00;96075.47;7395731;19;20405;-77
2023/04/29 08:34:52;;;;;;;7.33;6.63;;;;;;;12.22;100.00;96060.28;7396288;19;20383;-77
2023/04/29 08:37:20;;;;;;;7.93;7.13;;;;;;;12.29;100.00;96068.41;7395918;19;20400;-77
2023/04/29 08:39:49;;;;;;;8.50;7.80;;;;;;;12.38;100.00;96073.50;7394413;19;20389;-77
2023/04/29 08:42:20;;;;;;;9.40;8.60;;;;;;;12.57;100.00;96086.84;7395080;19;20376;-77
2023/04/29 08:44:48;;;;;;;7.80;7.10;;;;;;;12.68;100.00;96061.31;7396522;19;20397;-77
2023/04/29 08:47:16;;;;;;;7.60;6.80;;;;;;;12.73;100.00;96057.63;7394745;19;20493;-77
2023/04/29 08:49:43;;;;;;;8.57;7.73;;;;;;;12.79;100.00;96088.06;7395477;19;20905;-78
2023/04/29 08:52:10;;;;;;;6.87;6.23;;;;;;;12.68;100.00;96073.81;7395859;19;20430;-77
2023/04/29 08:54:37;;;;;;;7.87;7.07;;;;;;;12.60;100.00;96067.59;7393263;19;20392;-76
2023/04/29 08:57:05;;;;;;;7.10;6.40;;;;;;;12.65;100.00;96069.97;7394091;19;20920;-76
2023/04/29 08:59:32;;;;;;;6.57;5.90;;;;;;;13.09;100.00;96084.91;7395889;19;20880;-76
2023/04/29 09:01:59;;;;;;;7.30;6.60;;;;;;;12.94;100.00;96067.91;7394285;19;20904;-76
2023/04/29 09:04:51;;;;;;;6.30;5.80;;;;;;;13.14;100.00;96098.69;7396259;19;20429;-76
2023/04/29 09:07:18;;;;;;;6.13;5.73;;;;;;;13.08;100.00;96104.59;7395080;19;20424;-77
2023/04/29 09:09:46;;;;;;;7.13;6.43;;;;;;;12.73;100.00;96062.94;7394356;19;20376;-77
2023/04/29 09:12:13;;;;;;;5.87;5.37;;;;;;;12.72;100.00;96078.09;7395873;19;20417;-77
2023/04/29 09:14:40;;;;;;;5.43;4.97;;;;;;;12.42;100.00;96083.09;7393769;19;20400;-76
2023/04/29 09:17:07;;;;;;;5.80;5.30;;;;;;;12.35;100.00;96071.56;7394844;19;20353;-76
2023/04/29 09:19:35;;;;;;;6.73;5.50;;;;;;;12.69;100.00;96105.31;7393828;19;20401;-77
2023/04/29 09:22:03;;;;;;;6.10;5.60;;;;;;;13.18;100.00;96110.16;7393308;19;20433;-77
2023/04/29 09:24:31;;;;;;;7.57;6.87;;;;;;;13.09;100.00;96111.44;7393777;19;20380;-77
2023/04/29 09:26:59;;;;;;;5.43;4.70;;;;;;;12.85;100.00;96118.56;7395134;19;20418;-76
2023/04/29 09:29:26;;;;;;;5.60;5.10;;;;;;;12.52;100.00;96068.53;7393367;19;20364;-77
2023/04/29 09:31:52;;;;;;;5.53;4.90;;;;;;;12.35;100.00;96090.09;7392059;19;20384;-77
2023/04/29 09:34:39;;;;;;;5.63;5.13;;;;;;;12.42;100.00;96080.44;7393778;19;20377;-77
2023/04/29 09:37:32;;;;;;;5.57;4.90;;;;;;;12.73;100.00;96121.31;7392378;19;20372;-77
2023/04/29 09:40:00;;;;;;;5.50;5.00;;;;;;;12.44;100.00;96064.19;7395772;19;20384;-77
2023/04/29 09:42:27;;;;;;;4.80;4.40;;;;;;;12.85;100.00;96110.59;7395249;19;20348;-77
2023/04/29 09:44:54;;;;;;;4.83;4.43;;;;;;;12.91;100.00;96127.00;7394849;19;20422;-77
2023/04/29 09:47:30;;;;;;;5.27;4.87;;;;;;;12.68;100.00;96137.47;7395653;19;20468;-77
2023/04/29 09:50:10;;;;;;;4.80;4.30;;;;;;;12.73;100.00;96142.53;7392316;19;20958;-77
2023/04/29 09:52:42;;;;;;;4.70;4.30;;;;;;;12.55;100.00;96115.56;7394493;19;20397;-77
2023/04/29 09:55:10;;;;;;;5.43;4.37;;;;;;;12.55;100.00;96141.31;7392689;19;20370;-77
2023/04/29 09:57:40;;;;;;;4.70;4.30;;;;;;;12.62;100.00;96131.66;7393742;19;20417;-77
2023/04/29 10:00:14;;;;;;;5.23;4.83;;;;;;;12.50;100.00;96115.06;7394267;19;20452;-77
2023/04/29 10:02:42;;;;;;;5.00;4.60;;;;;;;12.69;100.00;96133.72;7397114;19;20932;-77
2023/04/29 10:05:10;;;;;;;5.90;5.40;;;;;;;12.79;100.00;96137.72;7403502;19;20539;-77
2023/04/29 10:07:38;;;;;;;5.20;4.70;;;;;;;12.64;100.00;96115.41;7402060;19;20417;-77
2023/04/29 10:10:07;;;;;;;5.13;4.50;;;;;;;12.94;100.00;96135.03;7400677;19;20368;-77
2023/04/29 10:12:34;;;;;;;5.20;4.70;;;;;;;12.81;100.00;96111.59;7404207;19;20345;-77
2023/04/29 10:15:25;;;;;;;4.77;4.30;;;;;;;13.05;100.00;96142.47;7403768;19;20405;-77
2023/04/29 10:17:53;;;;;;;4.37;3.97;;;;;;;13.21;100.00;96141.34;7399400;19;20491;-77
2023/04/29 10:20:23;;;;;;;4.77;3.90;;;;;;;13.18;100.00;96138.56;7400627;19;20405;-77
2023/04/29 10:22:53;;;;;;;4.73;4.33;;;;;;;13.39;100.00;96141.72;7399190;19;20412;-77
2023/04/29 10:25:22;;;;;;;4.23;3.93;;;;;;;13.64;100.00;96144.88;7400552;19;20392;-77
2023/04/29 10:27:52;;;;;;;4.40;4.00;;;;;;;13.74;100.00;96128.34;7399385;19;20416;-77
2023/04/29 10:30:20;;;;;;;3.57;3.27;;;;;;;13.40;100.00;96090.16;7403173;19;20815;-77
2023/04/29 10:32:49;;;;;;;4.00;3.70;;;;;;;13.79;100.00;96138.72;7398543;19;20412;-77
2023/04/29 10:35:21;;;;;;;4.13;3.73;;;;;;;13.61;100.00;96135.69;7404117;19;20747;-77
2023/04/29 10:37:49;;;;;;;4.57;4.23;;;;;;;13.55;100.00;96131.78;7396865;19;20444;-77
2023/04/29 10:40:21;;;;;;;4.60;4.20;;;;;;;13.59;100.00;96113.25;7401264;19;20372;-77
2023/04/29 10:42:54;;;;;;;5.63;4.30;;;;;;;14.13;100.00;96138.94;7396708;19;20350;-77
2023/04/29 10:45:30;;;;;;;5.60;4.33;;;;;;;13.84;100.00;96141.06;7399120;19;20380;-77
2023/04/29 10:48:09;;;;;;;3.97;3.63;;;;;;;13.43;100.00;96139.91;7399800;19;20424;-78
2023/04/29 10:50:45;;;;;;;3.60;3.30;;;;;;;13.47;100.00;96143.38;7399071;19;20355;-77
2023/04/29 10:53:14;;;;;;;3.30;3.00;;;;;;;13.52;100.00;96145.78;7403268;19;20872;-77
2023/04/29 10:55:41;;;;;;;3.50;3.30;;;;;;;13.18;100.00;96151.84;7400242;19;20418;-78
2023/04/29 10:58:33;;;;;;;3.70;3.40;;;;;;;13.31;100.00;96146.09;7401451;19;20404;-77
2023/04/29 11:01:01;;;;;;;3.40;2.87;;;;;;;12.99;100.00;96141.97;7400347;19;20401;-77
2023/04/29 11:03:57;;;;;;;3.40;3.10;;;;;;;13.17;100.00;96155.63;7401065;19;20404;-77
2023/04/29 11:06:38;;;;;;;3.70;3.40;;;;;;;13.09;100.00;96153.91;7398131;19;20371;-77
2023/04/29 11:09:11;;;;;;;3.10;2.27;;;;;;;12.90;100.00;96152.75;7398849;19;20408;-77
2023/04/29 11:11:47;;;;;;;2.93;2.73;;;;;;;12.93;100.00;96152.06;7400076;19;20697;-77
2023/04/29 11:14:21;;;;;;;3.17;2.87;;;;;;;12.97;100.00;96154.81;7398594;19;20872;-77
2023/04/29 11:16:51;;;;;;;3.83;3.50;;;;;;;12.80;100.00;96152.53;7399185;19;20368;-77
2023/04/29 11:19:19;;;;;;;4.50;3.30;;;;;;;12.56;100.00;96126.97;7396452;19;20381;-77
2023/04/29 11:21:46;;;;;;;4.90;4.50;;;;;;;12.52;100.00;96134.81;7397401;19;20349;-78
2023/04/29 11:24:16;;;;;;;4.73;3.87;;;;;;;12.84;100.00;96161.34;7397151;19;21039;-76
2023/04/29 11:26:45;;;;;;;4.53;4.13;;;;;;;12.86;100.00;96156.47;7399000;19;20401;-77
2023/04/29 11:29:13;;;;;;;4.57;4.17;;;;;;;12.57;100.00;96126.63;7394864;19;20995;-77
2023/04/29 11:31:39;;;;;;;5.47;4.97;;;;;;;12.57;100.00;96133.81;7399208;19;20404;-75
2023/04/29 11:34:07;;;;;;;5.57;5.07;;;;;;;12.38;100.00;96156.47;7396614;19;20400;-75
2023/04/29 11:36:35;;;;;;;5.00;4.53;;;;;;;12.14;100.00;96156.59;7398430;19;20393;-75
2023/04/29 11:39:02;;;;;;;3.67;3.37;;;;;;;12.04;100.00;96171.16;7394891;19;20421;-75
2023/04/29 11:41:30;;;;;;;3.97;3.67;;;;;;;11.46;100.00;96124.88;7399081;19;20700;-75
2023/04/29 11:43:58;;;;;;;3.80;3.50;;;;;;;11.73;100.00;96189.56;7397894;19;20345;-75
2023/04/29 11:46:29;;;;;;;4.20;3.63;;;;;;;11.09;100.00;96114.41;7397873;19;20384;-75